createdAt,value
2022-11-15T00:01:01.816Z,4.36
2022-11-15T00:04:36.241Z,4.30
2022-11-15T00:08:10.609Z,4.34
2022-11-15T00:11:44.829Z,4.43
2022-11-15T00:15:20.289Z,4.32
2022-11-15T00:18:54.196Z,4.26
2022-11-15T00:22:28.450Z,4.29
2022-11-15T00:26:07.969Z,4.35
2022-11-15T00:29:46.252Z,4.37
2022-11-15T00:33:20.967Z,4.37
2022-11-15T00:36:55.124Z,4.36
2022-11-15T00:40:34.340Z,4.27
2022-11-15T00:44:11.551Z,4.28
2022-11-15T00:47:45.447Z,4.24
2022-11-15T00:51:19.554Z,4.27
2022-11-15T00:54:54.843Z,4.12
2022-11-15T00:58:29.261Z,4.14
2022-11-15T01:02:05.576Z,4.18
2022-11-15T01:05:40.037Z,4.14
2022-11-15T01:09:15.277Z,4.13
2022-11-15T01:12:51.558Z,4.12
2022-11-15T01:16:27.211Z,4.12
2022-11-15T01:20:01.860Z,4.17
2022-11-15T01:23:36.586Z,4.04
2022-11-15T01:27:11.223Z,4.09
2022-11-15T01:30:46.801Z,4.09
2022-11-15T01:34:21.537Z,4.12
2022-11-15T01:37:56.445Z,4.13
2022-11-15T01:41:34.701Z,4.11
2022-11-15T01:45:09.461Z,4.12
2022-11-15T01:48:45.314Z,4.16
2022-11-15T01:52:25.979Z,4.09
2022-11-15T01:56:01.023Z,4.07
2022-11-15T01:59:35.693Z,4.08
2022-11-15T02:03:11.960Z,4.05
2022-11-15T02:06:47.290Z,4.11
2022-11-15T02:10:32.042Z,4.04
2022-11-15T02:14:08.476Z,4.02
2022-11-15T02:18:12.847Z,4.03
2022-11-15T02:21:51.748Z,4.04
2022-11-15T02:25:46.021Z,4.05
2022-11-15T02:29:24.812Z,3.96
2022-11-15T02:33:06.269Z,3.88
2022-11-15T02:36:49.133Z,3.79
2022-11-15T02:40:34.172Z,3.75
2022-11-15T02:44:13.420Z,3.66
2022-11-15T02:47:54.272Z,3.63
2022-11-15T02:51:30.329Z,3.58
2022-11-15T02:55:08.044Z,3.56
2022-11-15T02:59:20.814Z,3.67
2022-11-15T03:03:12.899Z,3.69
2022-11-15T03:06:53.853Z,3.62
2022-11-15T03:10:33.464Z,3.49
2022-11-15T03:14:12.658Z,3.44
2022-11-15T03:17:52.147Z,3.37
2022-11-15T03:21:27.736Z,3.40
2022-11-15T03:25:07.571Z,3.35
2022-11-15T03:28:47.100Z,3.32
2022-11-15T03:32:25.872Z,3.34
2022-11-15T03:36:04.203Z,3.47
2022-11-15T03:39:39.382Z,3.48
2022-11-15T03:43:18.626Z,3.36
2022-11-15T03:47:00.441Z,3.40
2022-11-15T03:50:35.959Z,3.49
2022-11-15T03:54:11.925Z,3.49
2022-11-15T03:57:46.061Z,3.58
2022-11-15T04:01:20.567Z,3.59
2022-11-15T04:04:54.669Z,3.53
2022-11-15T04:08:29.211Z,3.39
2022-11-15T04:12:03.872Z,3.27
2022-11-15T04:15:38.120Z,3.19
2022-11-15T04:19:26.856Z,3.31
2022-11-15T04:23:18.354Z,3.33
2022-11-15T04:26:53.553Z,3.35
2022-11-15T04:30:29.875Z,3.36
2022-11-15T04:34:04.620Z,3.27
2022-11-15T04:37:39.085Z,3.15
2022-11-15T04:41:18.338Z,3.18
2022-11-15T04:44:53.724Z,3.23
2022-11-15T04:48:27.920Z,3.24
2022-11-15T04:52:02.046Z,3.26
2022-11-15T04:55:35.969Z,3.31
2022-11-15T04:59:09.900Z,3.31
2022-11-15T05:02:58.373Z,3.21
2022-11-15T05:10:08.498Z,3.16
2022-11-15T05:13:42.868Z,3.16
2022-11-15T05:17:17.684Z,3.12
2022-11-15T05:20:55.306Z,3.08
2022-11-15T05:24:29.617Z,3.10
2022-11-15T05:28:09.147Z,3.00
2022-11-15T05:31:46.593Z,2.98
2022-11-15T05:35:25.427Z,2.88
2022-11-15T05:38:59.988Z,2.61
2022-11-15T05:42:39.534Z,2.59
2022-11-15T05:46:15.318Z,2.48
2022-11-15T05:49:52.463Z,2.54
2022-11-15T05:53:29.939Z,2.43
2022-11-15T05:57:04.308Z,2.53
2022-11-15T06:00:41.512Z,2.42
2022-11-15T06:04:15.550Z,2.54
2022-11-15T06:07:49.974Z,2.61
2022-11-15T06:11:23.810Z,2.60
2022-11-15T06:14:59.327Z,2.42
2022-11-15T06:18:34.485Z,2.44
2022-11-15T06:22:08.498Z,2.53
2022-11-15T06:25:43.378Z,2.57
2022-11-15T06:29:17.807Z,2.56
2022-11-15T06:32:51.589Z,2.67
2022-11-15T06:36:27.022Z,2.42
2022-11-15T06:40:01.703Z,2.53
2022-11-15T06:43:40.327Z,2.56
2022-11-15T06:47:14.628Z,2.60
2022-11-15T06:50:49.570Z,2.56
2022-11-15T06:54:25.148Z,2.64
2022-11-15T06:58:01.021Z,2.58
2022-11-15T07:01:34.978Z,2.54
2022-11-15T07:05:09.420Z,2.41
2022-11-15T07:08:43.798Z,2.47
2022-11-15T07:12:18.418Z,2.52
2022-11-15T07:15:54.047Z,2.61
2022-11-15T07:19:28.194Z,2.69
2022-11-15T07:23:10.250Z,2.72
2022-11-15T07:26:44.602Z,2.84
2022-11-15T07:30:22.958Z,2.88
2022-11-15T07:33:59.110Z,2.91
2022-11-15T07:37:33.548Z,2.97
2022-11-15T07:41:13.166Z,2.93
2022-11-15T07:44:47.487Z,2.90
2022-11-15T07:48:21.494Z,2.87
2022-11-15T07:51:55.512Z,2.89
2022-11-15T07:55:31.576Z,3.00
2022-11-15T07:59:05.846Z,3.01
2022-11-15T08:02:40.182Z,2.98
2022-11-15T08:06:14.780Z,2.98
2022-11-15T08:09:48.851Z,3.01
2022-11-15T08:13:23.628Z,2.94
2022-11-15T08:17:00.061Z,2.82
2022-11-15T08:20:35.860Z,2.88
2022-11-15T08:24:11.152Z,2.90
2022-11-15T08:27:45.472Z,3.01
2022-11-15T08:31:26.764Z,3.15
2022-11-15T08:35:00.664Z,3.28
2022-11-15T08:38:35.525Z,3.39
2022-11-15T08:42:14.549Z,3.45
2022-11-15T08:45:47.706Z,3.55
2022-11-15T08:49:21.958Z,3.50
2022-11-15T08:52:56.052Z,3.57
2022-11-15T08:56:30.114Z,3.55
2022-11-15T09:00:04.506Z,3.61
2022-11-15T09:03:38.641Z,3.69
2022-11-15T09:07:12.880Z,3.61
2022-11-15T09:10:47.915Z,3.67
2022-11-15T09:14:23.239Z,3.70
2022-11-15T09:18:00.506Z,3.82
2022-11-15T09:21:37.008Z,3.82
2022-11-15T09:25:16.094Z,3.93
2022-11-15T09:28:52.533Z,4.00
2022-11-15T09:32:27.068Z,4.03
2022-11-15T09:36:03.220Z,4.14
2022-11-15T09:39:37.293Z,4.18
2022-11-15T09:43:26.633Z,4.16
2022-11-15T09:47:05.992Z,4.28
2022-11-15T09:50:29.249Z,4.39
2022-11-15T09:57:16.681Z,4.48
2022-11-15T10:00:47.008Z,4.58
2022-11-15T10:03:56.112Z,4.72
2022-11-15T10:07:20.473Z,4.78
2022-11-15T10:10:43.306Z,4.81
2022-11-15T10:14:18.392Z,4.93
2022-11-15T10:17:59.849Z,5.07
2022-11-15T10:21:22.308Z,5.22
2022-11-15T10:24:44.158Z,5.42
2022-11-15T10:28:06.069Z,5.41
2022-11-15T10:31:35.180Z,5.41
2022-11-15T10:34:52.895Z,5.46
2022-11-15T10:38:19.420Z,5.59
2022-11-15T10:41:45.592Z,5.69
2022-11-15T10:45:03.804Z,5.84
2022-11-15T10:48:35.783Z,6.00
2022-11-15T10:51:58.170Z,6.16
2022-11-15T10:55:33.296Z,6.30
2022-11-15T10:58:54.660Z,6.46
2022-11-15T11:02:17.701Z,6.56
2022-11-15T11:05:43.078Z,6.63
2022-11-15T11:09:12.432Z,6.78
2022-11-15T11:12:37.892Z,6.94
2022-11-15T11:15:59.742Z,7.03
2022-11-15T11:19:49.498Z,7.18
2022-11-15T11:23:29.841Z,7.26
2022-11-15T11:26:57.236Z,7.37
2022-11-15T11:30:23.840Z,7.51
2022-11-15T11:33:44.817Z,7.61
2022-11-15T11:37:06.447Z,7.70
2022-11-15T11:40:35.131Z,7.78
2022-11-15T11:44:00.813Z,7.84
2022-11-15T11:47:21.873Z,7.91
2022-11-15T11:50:39.807Z,8.01
2022-11-15T11:54:05.471Z,8.04
2022-11-15T11:57:31.746Z,8.04
2022-11-15T12:00:53.752Z,8.01
2022-11-15T12:04:15.887Z,8.02
2022-11-15T12:07:38.359Z,8.04
2022-11-15T12:11:00.172Z,8.03
2022-11-15T12:14:23.702Z,7.98
2022-11-15T12:17:41.850Z,7.94
2022-11-15T12:21:04.189Z,7.91
2022-11-15T12:24:25.636Z,7.88
2022-11-15T12:27:48.049Z,7.92
2022-11-15T12:31:08.612Z,7.93
2022-11-15T12:34:46.719Z,7.94
2022-11-15T12:38:04.010Z,7.94
2022-11-15T12:41:31.017Z,7.96
2022-11-15T12:45:12.313Z,7.97
2022-11-15T12:49:06.082Z,8.00
2022-11-15T12:52:25.019Z,8.03
2022-11-15T12:55:43.339Z,8.07
2022-11-15T12:59:04.128Z,8.08
2022-11-15T13:02:31.720Z,8.12
2022-11-15T13:06:37.791Z,8.18
2022-11-15T13:10:06.298Z,8.22
2022-11-15T13:13:36.483Z,8.24
2022-11-15T13:16:50.337Z,8.26
2022-11-15T13:20:24.188Z,8.26
2022-11-15T13:23:40.430Z,8.26
2022-11-15T13:26:57.561Z,8.29
2022-11-15T13:30:22.443Z,8.32
2022-11-15T13:33:43.227Z,8.35
2022-11-15T13:36:59.542Z,8.37
2022-11-15T13:40:33.737Z,8.38
2022-11-15T13:43:49.794Z,8.38
2022-11-15T13:47:26.857Z,8.40
2022-11-15T13:50:47.084Z,8.40
2022-11-15T13:54:09.332Z,8.41
2022-11-15T13:57:29.879Z,8.42
2022-11-15T14:00:50.209Z,8.42
2022-11-15T14:04:11.492Z,8.41
2022-11-15T14:07:31.926Z,8.41
2022-11-15T14:10:49.278Z,8.42
2022-11-15T14:14:26.219Z,8.43
2022-11-15T14:17:49.978Z,8.43
2022-11-15T14:21:18.055Z,8.42
2022-11-15T14:24:37.970Z,8.41
2022-11-15T14:28:18.115Z,8.40
2022-11-15T14:31:34.406Z,8.37
2022-11-15T14:34:52.303Z,8.37
2022-11-15T14:38:09.979Z,8.36
2022-11-15T14:41:35.280Z,8.30
2022-11-15T14:44:51.513Z,8.26
2022-11-15T14:48:08.103Z,8.23
2022-11-15T14:51:27.721Z,8.24
2022-11-15T14:54:44.039Z,8.25
2022-11-15T14:58:00.328Z,8.26
2022-11-15T15:01:26.177Z,8.25
2022-11-15T15:04:44.954Z,8.26
2022-11-15T15:08:01.907Z,8.26
2022-11-15T15:11:24.340Z,8.24
2022-11-15T15:14:42.814Z,8.21
2022-11-15T15:17:59.158Z,8.22
2022-11-15T15:21:29.824Z,8.20
2022-11-15T15:24:45.715Z,8.17
2022-11-15T15:28:04.019Z,8.19
2022-11-15T15:31:20.887Z,8.18
2022-11-15T15:34:41.277Z,8.14
2022-11-15T15:38:00.422Z,8.14
2022-11-15T15:41:21.577Z,8.15
2022-11-15T15:44:38.529Z,8.16
2022-11-15T15:47:56.670Z,8.16
2022-11-15T15:54:32.714Z,8.11
2022-11-15T15:57:49.144Z,8.12
2022-11-15T16:01:08.362Z,8.09
2022-11-15T16:04:24.545Z,8.07
2022-11-15T16:07:41.580Z,8.01
2022-11-15T16:10:58.646Z,7.98
2022-11-15T16:14:18.251Z,7.98
2022-11-15T16:17:38.529Z,7.96
2022-11-15T16:20:58.631Z,7.93
2022-11-15T16:24:15.142Z,7.92
2022-11-15T16:27:32.943Z,7.91
2022-11-15T16:30:53.874Z,7.91
2022-11-15T16:34:08.314Z,7.88
2022-11-15T16:37:31.011Z,7.85
2022-11-15T16:41:41.270Z,7.82
2022-11-15T16:44:59.399Z,7.81
2022-11-15T16:48:35.717Z,7.80
2022-11-15T16:51:55.522Z,7.85
2022-11-15T16:55:16.458Z,7.84
2022-11-15T16:58:34.881Z,7.83
2022-11-15T17:01:55.964Z,7.84
2022-11-15T17:05:19.926Z,7.86
2022-11-15T17:11:56.012Z,7.76
2022-11-15T17:15:16.007Z,7.80
2022-11-15T17:18:32.804Z,7.80
2022-11-15T17:21:52.151Z,7.78
2022-11-15T17:25:11.180Z,7.73
2022-11-15T17:28:27.669Z,7.72
2022-11-15T17:31:45.453Z,7.75
2022-11-15T17:35:02.686Z,7.75
2022-11-15T17:38:19.228Z,7.73
2022-11-15T17:41:38.570Z,7.72
2022-11-15T17:44:54.830Z,7.75
2022-11-15T17:48:11.861Z,7.72
2022-11-15T17:51:28.950Z,7.72
2022-11-15T17:54:45.498Z,7.75
2022-11-15T17:58:02.428Z,7.80
2022-11-15T18:01:23.742Z,7.84
2022-11-15T18:04:41.349Z,7.83
2022-11-15T18:07:58.072Z,7.82
2022-11-15T18:11:21.730Z,7.82
2022-11-15T18:14:38.654Z,7.81
2022-11-15T18:18:00.619Z,7.77
2022-11-15T18:21:19.352Z,7.77
2022-11-15T18:24:39.258Z,7.80
2022-11-15T18:27:59.593Z,7.75
2022-11-15T18:31:23.626Z,7.75
2022-11-15T18:34:39.996Z,7.76
2022-11-15T18:38:02.048Z,7.78
2022-11-15T18:41:25.984Z,7.82
2022-11-15T18:44:46.189Z,7.76
2022-11-15T18:48:04.424Z,7.76
2022-11-15T18:51:25.819Z,7.75
2022-11-15T18:54:41.395Z,7.78
2022-11-15T18:57:57.536Z,7.83
2022-11-15T19:01:17.354Z,7.89
2022-11-15T19:04:34.096Z,7.91
2022-11-15T19:07:51.800Z,7.92
2022-11-15T19:11:13.515Z,7.92
2022-11-15T19:14:31.516Z,7.92
2022-11-15T19:17:47.850Z,7.86
2022-11-15T19:21:13.321Z,7.83
2022-11-15T19:24:33.214Z,7.80
2022-11-15T19:27:50.132Z,7.74
2022-11-15T19:31:21.152Z,7.72
2022-11-15T19:34:40.692Z,7.70
2022-11-15T19:37:59.859Z,7.69
2022-11-15T19:41:19.521Z,7.67
2022-11-15T19:44:39.639Z,7.69
2022-11-15T19:48:00.740Z,7.69
2022-11-15T19:51:22.485Z,7.72
2022-11-15T19:54:41.872Z,7.71
2022-11-15T19:57:59.545Z,7.67
2022-11-15T20:01:22.122Z,7.68
2022-11-15T20:04:39.130Z,7.69
2022-11-15T20:07:57.275Z,7.70
2022-11-15T20:11:15.232Z,7.65
2022-11-15T20:14:35.574Z,7.65
2022-11-15T20:17:52.113Z,7.70
2022-11-15T20:21:10.855Z,7.74
2022-11-15T20:24:28.857Z,7.80
2022-11-15T20:27:45.493Z,7.82
2022-11-15T20:31:05.077Z,7.83
2022-11-15T20:34:25.021Z,7.84
2022-11-15T20:37:43.126Z,7.86
2022-11-15T20:41:00.773Z,7.83
2022-11-15T20:44:19.046Z,7.80
2022-11-15T20:47:39.375Z,7.75
2022-11-15T20:50:57.199Z,7.71
2022-11-15T20:54:14.402Z,7.69
2022-11-15T20:57:39.168Z,7.68
2022-11-15T21:00:59.603Z,7.72
2022-11-15T21:04:18.366Z,7.73
2022-11-15T21:07:35.168Z,7.69
2022-11-15T21:11:07.347Z,7.63
2022-11-15T21:14:25.534Z,7.61
2022-11-15T21:17:42.496Z,7.62
2022-11-15T21:20:59.543Z,7.68
2022-11-15T21:24:19.496Z,7.69
2022-11-15T21:27:36.422Z,7.70
2022-11-15T21:31:01.830Z,7.69
2022-11-15T21:34:18.393Z,7.69
2022-11-15T21:37:35.083Z,7.68
2022-11-15T21:40:51.149Z,7.69
2022-11-15T21:44:10.031Z,7.68
2022-11-15T21:47:26.186Z,7.71
2022-11-15T21:50:42.572Z,7.75
2022-11-15T21:54:02.394Z,7.76
2022-11-15T21:57:19.817Z,7.73
2022-11-15T22:00:50.394Z,7.72
2022-11-15T22:04:50.139Z,7.71
2022-11-15T22:08:06.422Z,7.70
2022-11-15T22:11:23.160Z,7.71
2022-11-15T22:14:39.552Z,7.72
2022-11-15T22:18:05.560Z,7.75
2022-11-15T22:21:24.985Z,7.76
2022-11-15T22:24:42.385Z,7.71
2022-11-15T22:27:59.300Z,7.72
2022-11-15T22:31:17.702Z,7.70
2022-11-15T22:34:34.689Z,7.69
2022-11-15T22:37:53.447Z,7.75
2022-11-15T22:41:10.509Z,7.82
2022-11-15T22:44:27.849Z,7.86
2022-11-15T22:47:44.704Z,7.87
2022-11-15T22:51:02.661Z,7.87
2022-11-15T22:54:19.669Z,7.83
2022-11-15T22:57:39.050Z,7.80
2022-11-15T23:01:00.359Z,7.83
2022-11-15T23:04:17.574Z,7.86
2022-11-15T23:07:34.551Z,7.87
2022-11-15T23:11:06.076Z,7.92
2022-11-15T23:14:24.158Z,7.94
2022-11-15T23:17:41.462Z,7.91
2022-11-15T23:20:58.291Z,7.96
2022-11-15T23:24:17.432Z,7.96
2022-11-15T23:27:34.642Z,7.93
2022-11-15T23:31:05.390Z,7.89
2022-11-15T23:34:22.574Z,7.86
2022-11-15T23:37:40.350Z,7.83
2022-11-15T23:41:00.493Z,7.82
2022-11-15T23:44:18.074Z,7.84
2022-11-15T23:47:34.787Z,7.83
2022-11-15T23:50:53.928Z,7.81
2022-11-15T23:54:11.163Z,7.80
2022-11-15T23:57:28.155Z,7.80
